YM Venus — 9HCB8 — position and weather

sailwx.info

Track history (hours):
 
Tides and Currents Weather Stations Pressure Air Temp Water Temp Dewpoint Dewpoint Depression Visibility Wind Speed Wind Dir Waves Ship Positions

YM Venus

Last reported at 2017-Jan-14 06:13 UTC. Time now 2017-Mar-26 07:29 UTC.
Position N 36°40' E 014°35'.
Warning: this ship's position is months out of date.

Length 105 m; draft 5.2 m.

Type: Ship. MMSI: 215826000.

Date/timePositionNaut miles runAvg speedWind from/ knotsBaromVisibWave heightAir tempDewpointWater temp
2017-Jan-14 06:13N 36°40' E 014°35'913.3
2017-Jan-14 05:33N 36°43' E 014°24'1313.1
2017-Jan-14 04:33N 36°47' E 014°09'1313.2
2017-Jan-14 03:33N 36°52' E 013°54'54311.8
2017-Jan-12 05:28N 42°56' E 005°09'1213.1
2017-Jan-12 04:34N 43°07' E 005°03'1312.9
2017-Jan-12 03:33N 43°20' E 004°58'7 6.8
2017-Jan-12 02:33N 43°25' E 005°05'4 2.6
2017-Jan-12 01:07N 43°27' E 005°09'0 0.0
2017-Jan-12 00:22N 43°27' E 005°09'0 0.0
2017-Jan-11 23:22N 43°27' E 005°09'0 0.0
2017-Jan-11 22:16N 43°27' E 005°09'0 0.0
2017-Jan-11 21:19N 43°27' E 005°09'0 0.0
2017-Jan-11 20:31N 43°27' E 005°09'0 0.0
2017-Jan-11 19:28N 43°27' E 005°09'0 0.0
2017-Jan-11 18:16N 43°27' E 005°09'0 0.0
2017-Jan-11 16:10N 43°27' E 005°09'0 0.0
2017-Jan-11 15:22N 43°27' E 005°09'0 0.0
2017-Jan-11 10:22N 43°27' E 005°09'0 0.0
2017-Jan-11 04:28N 43°27' E 005°09'1 1.6
2017-Jan-11 03:33N 43°26' E 005°07'7 6.9
2017-Jan-11 02:33N 43°23' E 004°59'1 0.9
2017-Jan-11 01:33N 43°24' E 004°58'0 0.0
2017-Jan-11 00:33N 43°24' E 004°58'0 0.0
2017-Jan-10 23:33N 43°24' E 004°58'0 0.0
2017-Jan-10 22:33N 43°24' E 004°58'0 0.0
2017-Jan-10 21:31N 43°24' E 004°58'0 0.3
2017-Jan-10 20:31N 43°24' E 004°58'0 0.0
2017-Jan-10 19:28N 43°24' E 004°58'0 0.0
2017-Jan-10 18:31N 43°24' E 004°58'0 0.0
2017-Jan-10 17:31N 43°24' E 004°58'0 0.0
2017-Jan-10 16:31N 43°24' E 004°58'0 0.1
2017-Jan-10 15:31N 43°24' E 004°58'7 7.6
2017-Jan-10 14:33N 43°17' E 005°00'  
Track history (hours):
 
Tides and Currents Weather Stations Pressure Air Temp Water Temp Dewpoint Dewpoint Depression Visibility Wind Speed Wind Dir Waves Ship Positions

YM Venus

Last reported at 2017-Jan-14 06:13 UTC. Time now 2017-Mar-26 07:29 UTC.
Position N 36°40' E 014°35'.
Warning: this ship's position is months out of date.

Length 105 m; draft 5.2 m.

Type: Ship. MMSI: 215826000.

Date/timePositionNaut miles runAvg speedWind from/ knotsBaromVisibWave heightAir tempDewpointWater temp
2017-Jan-14 06:13N 36°40' E 014°35'913.3
2017-Jan-14 05:33N 36°43' E 014°24'1313.1
2017-Jan-14 04:33N 36°47' E 014°09'1313.2
2017-Jan-14 03:33N 36°52' E 013°54'54311.8
2017-Jan-12 05:28N 42°56' E 005°09'1213.1
2017-Jan-12 04:34N 43°07' E 005°03'1312.9
2017-Jan-12 03:33N 43°20' E 004°58'7 6.8
2017-Jan-12 02:33N 43°25' E 005°05'4 2.6
2017-Jan-12 01:07N 43°27' E 005°09'0 0.0
2017-Jan-12 00:22N 43°27' E 005°09'0 0.0
2017-Jan-11 23:22N 43°27' E 005°09'0 0.0
2017-Jan-11 22:16N 43°27' E 005°09'0 0.0
2017-Jan-11 21:19N 43°27' E 005°09'0 0.0
2017-Jan-11 20:31N 43°27' E 005°09'0 0.0
2017-Jan-11 19:28N 43°27' E 005°09'0 0.0
2017-Jan-11 18:16N 43°27' E 005°09'0 0.0
2017-Jan-11 16:10N 43°27' E 005°09'0 0.0
2017-Jan-11 15:22N 43°27' E 005°09'0 0.0
2017-Jan-11 10:22N 43°27' E 005°09'0 0.0
2017-Jan-11 04:28N 43°27' E 005°09'1 1.6
2017-Jan-11 03:33N 43°26' E 005°07'7 6.9
2017-Jan-11 02:33N 43°23' E 004°59'1 0.9
2017-Jan-11 01:33N 43°24' E 004°58'0 0.0
2017-Jan-11 00:33N 43°24' E 004°58'0 0.0
2017-Jan-10 23:33N 43°24' E 004°58'0 0.0
2017-Jan-10 22:33N 43°24' E 004°58'0 0.0
2017-Jan-10 21:31N 43°24' E 004°58'0 0.3
2017-Jan-10 20:31N 43°24' E 004°58'0 0.0
2017-Jan-10 19:28N 43°24' E 004°58'0 0.0
2017-Jan-10 18:31N 43°24' E 004°58'0 0.0
2017-Jan-10 17:31N 43°24' E 004°58'0 0.0
2017-Jan-10 16:31N 43°24' E 004°58'0 0.1
2017-Jan-10 15:31N 43°24' E 004°58'7 7.6
2017-Jan-10 14:33N 43°17' E 005°00'  

Dump ship's entire track history